M I D A S
Marine Information and Data Acquisition System
Tripno 810 of the Zeeleeuw from 2004-11-22 08:19:51 to 2004-11-22 14:09:12
Back to CruiseResearch ActivitiesStationsMapUnderway DataData graphs

EquipmentUnitsComment
TimeDGPSUTC
LatitudeDGPSDM.mWGS84
LongitudeDGPSDM.mWGS84
HeadingGyrodeg 
SOGDGPSknotsSpeed over ground
COGDGPSdegCourse over ground
DepthEcho soundermeters200 kHz
Missing or incorrect values are displayed as -999
Navigation data collected by the RV Zeeleeuw from 2004-11-22 08:21:17 to 2004-11-22 14:15:54
                                                                                    Next 1000 lines
Time Latitude Longitude Heading SOG COG Depth
2004-11-22 08:21:28 51°13.596 2°56.11 113.9 0.6 296 10.7
2004-11-22 08:21:33 51°13.597 2°56.107 114.4 1.5 301 10.6
2004-11-22 08:21:37 51°13.598 2°56.104 114.6 1.9 300 10.5
2004-11-22 08:21:43 51°13.6 2°56.099 114.7 1.9 300 -999
2004-11-22 08:21:49 51°13.602 2°56.094 114.6 2.4 299 -999
2004-11-22 08:21:54 51°13.603 2°56.089 113.9 2.6 298 -999
2004-11-22 08:21:59 51°13.605 2°56.083 113 2.9 297 -999
2004-11-22 08:22:04 51°13.607 2°56.077 112.1 3.1 295 -999
2004-11-22 08:22:09 51°13.609 2°56.07 111.6 3.1 295 -999
2004-11-22 08:22:14 51°13.611 2°56.064 110.3 3.2 293 -999
2004-11-22 08:22:19 51°13.612 2°56.057 109.5 3.4 290 11.7
2004-11-22 08:22:24 51°13.614 2°56.049 108.1 3.5 290 -999
2004-11-22 08:22:28 51°13.615 2°56.044 106.6 3.2 286 -999
2004-11-22 08:22:34 51°13.616 2°56.037 105.4 3.1 286 -999
2004-11-22 08:22:38 51°13.617 2°56.033 103.9 2.3 288 -999
2004-11-22 08:22:44 51°13.618 2°56.031 103.5 0.7 297 -999
2004-11-22 08:22:48 51°13.618 2°56.031 104.5 0.4 318 -999
2004-11-22 08:22:54 51°13.618 2°56.032 107 0.3 87 -999
2004-11-22 08:22:58 51°13.618 2°56.032 109.8 0.3 87 13
2004-11-22 08:23:02 51°13.619 2°56.031 111.6 0.3 330 12.9
2004-11-22 08:23:19 51°13.621 2°56.024 115.5 1.5 299 13.3
2004-11-22 08:23:24 51°13.622 2°56.02 116.2 1.5 299 13.3
2004-11-22 08:23:29 51°13.623 2°56.016 116.7 1.9 293 5.1
2004-11-22 08:23:31 51°13.624 2°56.014 117.4 2.4 295 -999
2004-11-22 08:23:39 51°13.626 2°56.005 118 2.7 298 -999
2004-11-22 08:23:44 51°13.628 2°56 118.3 2.9 297 -999
2004-11-22 08:23:49 51°13.63 2°55.994 118.7 3.1 299 -999
2004-11-22 08:23:53 51°13.631 2°55.988 119.4 3.2 298 -999
2004-11-22 08:23:58 51°13.633 2°55.982 119.9 3.4 299 -999
2004-11-22 08:24:02 51°13.635 2°55.976 120.8 3.6 299 -999
2004-11-22 08:24:09 51°13.639 2°55.966 121.2 3.8 302 -999
2004-11-22 08:24:12 51°13.641 2°55.962 121.5 3.9 302 -999
2004-11-22 08:24:19 51°13.645 2°55.951 121.5 4.1 301 -999
2004-11-22 08:24:24 51°13.648 2°55.943 121.3 4.1 301 -999
2004-11-22 08:24:30 51°13.651 2°55.934 120.4 4.3 301 -999
2004-11-22 08:24:34 51°13.653 2°55.927 119.3 4.3 300 -999
2004-11-22 08:24:39 51°13.656 2°55.919 117.8 4.3 298 -999
2004-11-22 08:24:44 51°13.659 2°55.91 115.8 4.4 297 -999
2004-11-22 08:24:52 51°13.663 2°55.895 111.6 4.6 291 -999
2004-11-22 08:25:02 51°13.667 2°55.875 107.2 4.8 287 -999
2004-11-22 08:25:08 51°13.669 2°55.862 104.3 4.9 284 -999
2004-11-22 08:25:12 51°13.67 2°55.854 101.6 5 280 -999
2004-11-22 08:25:16 51°13.671 2°55.845 99 5 278 -999
2004-11-22 08:25:20 51°13.671 2°55.836 96.5 5.1 276 -999
2004-11-22 08:25:32 51°13.673 2°55.809 93.2 4.9 274 -999
2004-11-22 08:25:40 51°13.674 2°55.792 92.9 4.4 276 -999
2004-11-22 08:25:46 51°13.675 2°55.782 92.7 4.4 276 -999
2004-11-22 08:25:51 51°13.675 2°55.776 91.2 3.3 274 -999
2004-11-22 08:25:56 51°13.675 2°55.771 88.3 2 277 14.4
2004-11-22 08:26:02 51°13.676 2°55.767 85.3 1.7 277 14.6
2004-11-22 08:26:06 51°13.677 2°55.766 81.4 0.8 315 14.8
2004-11-22 08:26:12 51°13.678 2°55.767 75.7 0.7 339 15
2004-11-22 08:26:17 51°13.68 2°55.769 69.5 1.5 37 15.5
2004-11-22 08:26:19 51°13.681 2°55.77 61.2 1.7 36 16.2
2004-11-22 08:26:27 51°13.684 2°55.772 52.9 1.7 29 16.4
2004-11-22 08:26:39 51°13.685 2°55.772 41.4 0.4 339 16.5
2004-11-22 08:26:44 51°13.684 2°55.77 37.6 0.6 240 16.5
2004-11-22 08:26:49 51°13.682 2°55.768 35.2 1.4 220 16.4
2004-11-22 08:26:51 51°13.682 2°55.767 32.6 1.6 218 16.2
2004-11-22 08:26:58 51°13.679 2°55.764 31.1 1.7 218 -999
2004-11-22 08:27:02 51°13.678 2°55.762 29.7 1.3 226 -999
2004-11-22 08:27:11 51°13.676 2°55.76 24.8 0.7 332 -999
2004-11-22 08:27:18 51°13.678 2°55.758 18.8 1.2 354 15.6
2004-11-22 08:27:22 51°13.68 2°55.758 13 2 350 -999
2004-11-22 08:27:30 51°13.685 2°55.756 4.8 2.5 347 -999
2004-11-22 08:27:34 51°13.688 2°55.754 354.9 2.5 347 -999
2004-11-22 08:27:40 51°13.694 2°55.751 347.5 3.6 337 -999
2004-11-22 08:27:44 51°13.698 2°55.747 341.1 3.8 335 -999
2004-11-22 08:27:49 51°13.703 2°55.743 337.8 4.4 333 16.5
2004-11-22 08:27:52 51°13.707 2°55.74 335.7 4.4 333 15.7
2004-11-22 08:27:58 51°13.714 2°55.734 335.2 5 332 14.8
2004-11-22 08:28:04 51°13.722 2°55.727 335.1 5.2 332 13.8
2004-11-22 08:28:08 51°13.728 2°55.723 335.1 5.6 332 13.8
2004-11-22 08:28:14 51°13.738 2°55.715 335.1 5.6 332 13.7
2004-11-22 08:28:17 51°13.743 2°55.711 335 6.5 332 13.6
2004-11-22 08:28:24 51°13.754 2°55.701 335 6.5 332 13.4
2004-11-22 08:28:28 51°13.761 2°55.695 334.9 7 332 13.4
2004-11-22 08:28:32 51°13.768 2°55.688 334.7 7 332 13.5
2004-11-22 08:28:36 51°13.775 2°55.682 334.1 7.5 331 13.5
2004-11-22 08:28:44 51°13.79 2°55.668 333.8 7.5 331 13.3
2004-11-22 08:28:47 51°13.795 2°55.663 334.2 7.8 331 13.5
2004-11-22 08:28:54 51°13.809 2°55.652 335.4 8 332 13.7
2004-11-22 08:28:58 51°13.818 2°55.645 335.8 8.1 332 13.8
2004-11-22 08:29:04 51°13.83 2°55.635 336.1 8.2 333 13.6
2004-11-22 08:29:08 51°13.838 2°55.628 336.8 8.3 334 13.5
2004-11-22 08:29:12 51°13.846 2°55.621 337.5 8.4 334 13.4
2004-11-22 08:29:18 51°13.858 2°55.611 337.5 8.5 334 13.3
2004-11-22 08:29:24 51°13.871 2°55.601 337.6 8.5 333 13.3
2004-11-22 08:29:28 51°13.879 2°55.594 337.7 8.6 334 13.2
2004-11-22 08:29:34 51°13.893 2°55.585 338.4 8.6 335 12.7
2004-11-22 08:29:38 51°13.902 2°55.579 339.4 8.7 336 13.4
2004-11-22 08:29:44 51°13.915 2°55.57 339.7 8.7 336 13.5
2004-11-22 08:29:49 51°13.927 2°55.562 339.7 8.8 336 13.4
2004-11-22 08:29:54 51°13.938 2°55.554 340 8.8 336 12.8
2004-11-22 08:29:57 51°13.945 2°55.55 339.8 8.8 336 13.3
2004-11-22 08:30:02 51°13.956 2°55.542 339.6 8.9 337 13.5
2004-11-22 08:30:12 51°13.979 2°55.526 340.1 9 336 13.8
2004-11-22 08:30:20 51°13.997 2°55.513 339.6 9 336 13.9
2004-11-22 08:30:25 51°14.008 2°55.505 339.5 8.9 335 13.6
2004-11-22 08:30:28 51°14.015 2°55.5 339.7 9 336 13.6
2004-11-22 08:30:40 51°14.042 2°55.48 338.5 8.9 334 13.3
2004-11-22 08:30:44 51°14.051 2°55.473 338.3 8.9 334 13.2
2004-11-22 08:30:58 51°14.082 2°55.449 338.7 9 335 13.1
2004-11-22 08:31:04 51°14.096 2°55.438 338.3 9.3 334 13
2004-11-22 08:31:07 51°14.103 2°55.432 338.2 9.5 334 13.1
2004-11-22 08:31:12 51°14.115 2°55.422 337.8 9.7 332 13.1
2004-11-22 08:31:26 51°14.149 2°55.393 335.5 10 331 13.3
2004-11-22 08:31:32 51°14.164 2°55.38 334.9 10 330 13.3
2004-11-22 08:31:37 51°14.176 2°55.368 333.8 10 330 13.4
2004-11-22 08:31:42 51°14.187 2°55.357 332.9 10.1 328 13.3
2004-11-22 08:31:46 51°14.197 2°55.347 331.6 10.2 326 13.3
2004-11-22 08:31:51 51°14.208 2°55.333 329.6 10.2 324 13.4
2004-11-22 08:31:56 51°14.219 2°55.32 327.3 10.2 322 13.3
2004-11-22 08:32:01 51°14.23 2°55.306 325.9 10.2 322 13.3
2004-11-22 08:32:07 51°14.243 2°55.288 324.9 10.2 321 13.3
2004-11-22 08:32:23 51°14.277 2°55.239 321.3 10.3 318 13.4
2004-11-22 08:32:26 51°14.283 2°55.229 319.9 10.3 318 13.4
2004-11-22 08:32:33 51°14.296 2°55.206 317.3 10.3 312 13.5
2004-11-22 08:32:38 51°14.306 2°55.189 315.6 10.3 312 13.5
2004-11-22 08:32:41 51°14.312 2°55.179 313.8 10.1 310 13.5
2004-11-22 08:32:47 51°14.322 2°55.158 313.4 10.1 310 13.4
2004-11-22 08:32:52 51°14.332 2°55.141 313.1 10.1 310 13.5
2004-11-22 08:32:57 51°14.34 2°55.124 313 10.1 310 13.5
2004-11-22 08:33:02 51°14.349 2°55.107 313.4 10.1 310 13.3
2004-11-22 08:33:05 51°14.355 2°55.097 313 10.2 309 13.4
2004-11-22 08:33:12 51°14.368 2°55.072 312.3 10.4 309 13.7
2004-11-22 08:33:18 51°14.379 2°55.051 311.5 10.5 311 13.8
2004-11-22 08:33:20 51°14.383 2°55.045 311.4 10.4 316 14.3
2004-11-22 08:33:28 51°14.401 2°55.02 312.5 10.5 319 13.9
2004-11-22 08:33:32 51°14.409 2°55.007 314.2 10.6 318 13.9
2004-11-22 08:33:38 51°14.422 2°54.988 315 10.5 317 13.9
2004-11-22 08:33:42 51°14.43 2°54.975 312.9 10.4 315 13.7
2004-11-22 08:33:48 51°14.44 2°54.953 308.9 10.2 310 13.6
2004-11-22 08:33:59 51°14.455 2°54.912 298.9 10.1 303 13.6
2004-11-22 08:34:03 51°14.46 2°54.897 294.6 9.6 296 13.6
2004-11-22 08:34:09 51°14.466 2°54.873 291.2 9.4 292 13.6
2004-11-22 08:34:14 51°14.468 2°54.854 285.9 9.3 287 13.7
2004-11-22 08:34:18 51°14.47 2°54.838 280.7 9 278 13.7
2004-11-22 08:34:24 51°14.471 2°54.814 275.4 9 274 13.6
2004-11-22 08:34:29 51°14.471 2°54.794 273 9.2 273 13.7
2004-11-22 08:34:34 51°14.471 2°54.773 271.4 9.2 273 13.7
2004-11-22 08:34:38 51°14.471 2°54.757 268.5 9.1 267 14.1
2004-11-22 08:34:44 51°14.469 2°54.733 266.7 9.2 267 13.7
2004-11-22 08:34:48 51°14.468 2°54.717 264.5 9.4 264 13.7
2004-11-22 08:34:54 51°14.466 2°54.692 263.4 9.2 264 14
2004-11-22 08:34:58 51°14.465 2°54.675 262.8 9.2 263 13.9
2004-11-22 08:35:03 51°14.463 2°54.655 261.4 9.4 262 13.8
2004-11-22 08:35:08 51°14.462 2°54.633 261.3 9.7 263 13.8
2004-11-22 08:35:14 51°14.459 2°54.608 261.3 9.7 263 13.6
2004-11-22 08:35:18 51°14.458 2°54.591 260.9 9.8 261 13.5
2004-11-22 08:35:22 51°14.456 2°54.573 260.8 9.8 260 13.5
2004-11-22 08:35:28 51°14.452 2°54.548 259.4 9.9 256 13.6
2004-11-22 08:35:34 51°14.447 2°54.523 256.6 10 252 13.7
2004-11-22 08:35:39 51°14.442 2°54.502 254 10 253 13.7
2004-11-22 08:35:44 51°14.436 2°54.482 251.3 10.2 246 13.6
2004-11-22 08:35:47 51°14.432 2°54.469 249.4 10.3 245 13.4
2004-11-22 08:35:52 51°14.426 2°54.449 246.7 10.4 243 13.1
2004-11-22 08:35:58 51°14.417 2°54.424 245.3 10.4 241 13
2004-11-22 08:36:04 51°14.409 2°54.4 244.5 10.5 242 12.8
2004-11-22 08:36:08 51°14.403 2°54.384 244.4 10.6 240 12.4
2004-11-22 08:36:14 51°14.394 2°54.359 243.9 10.5 241 12.6
2004-11-22 08:36:17 51°14.39 2°54.347 243.5 10.4 241 12.6
2004-11-22 08:36:21 51°14.385 2°54.331 243.9 10.6 240 12.3
2004-11-22 08:36:29 51°14.373 2°54.298 243.8 10.6 241 12.3
2004-11-22 08:36:32 51°14.368 2°54.286 243.8 10.8 241 12.2
2004-11-22 08:36:39 51°14.358 2°54.256 243.7 10.9 241 12.2
2004-11-22 08:36:42 51°14.353 2°54.243 243.7 10.9 241 12.5
2004-11-22 08:36:48 51°14.345 2°54.217 244 11.2 241 12.2
2004-11-22 08:36:54 51°14.336 2°54.191 244.1 11.2 242 12.2
2004-11-22 08:37:06 51°14.317 2°54.138 244 11.4 241 12.3
2004-11-22 08:37:10 51°14.311 2°54.121 244.1 11.5 242 12.3
2004-11-22 08:37:13 51°14.306 2°54.107 243.9 11.5 241 12.3
2004-11-22 08:37:24 51°14.289 2°54.058 244.2 11.6 242 12.2
2004-11-22 08:37:26 51°14.286 2°54.049 244.5 11.5 241 12.3
2004-11-22 08:37:38 51°14.268 2°53.995 244.8 11.6 242 12.2
2004-11-22 08:37:40 51°14.265 2°53.986 244.9 11.5 242 12.1
2004-11-22 08:37:55 51°14.242 2°53.918 244.6 11.7 243 12.2
2004-11-22 08:38:00 51°14.235 2°53.896 245.3 11.6 242 12.2
2004-11-22 08:38:04 51°14.229 2°53.877 245.3 11.6 243 12.2
2004-11-22 08:38:08 51°14.223 2°53.859 245.1 11.8 243 12
2004-11-22 08:38:14 51°14.213 2°53.832 244.7 11.5 241 12.3
2004-11-22 08:38:24 51°14.198 2°53.788 244.1 11.3 241 12.4
2004-11-22 08:38:34 51°14.183 2°53.744 244.4 11.5 242 12.3
2004-11-22 08:38:38 51°14.177 2°53.726 244.5 11.5 242 12.1
2004-11-22 08:38:44 51°14.168 2°53.699 244.9 11.4 242 12.4
2004-11-22 08:38:49 51°14.16 2°53.677 244.8 11.5 242 12.2
2004-11-22 08:38:54 51°14.153 2°53.654 245.1 11.5 242 12.1
2004-11-22 08:39:06 51°14.135 2°53.601 244.8 11.4 242 12.3
2004-11-22 08:39:11 51°14.128 2°53.578 245.3 11.6 243 12.3
2004-11-22 08:39:16 51°14.121 2°53.556 244.9 11.5 242 12.5
2004-11-22 08:39:20 51°14.115 2°53.538 245.4 11.6 242 12.5
2004-11-22 08:39:26 51°14.106 2°53.51 244.9 11.7 243 12.4
2004-11-22 08:39:30 51°14.1 2°53.492 245.5 11.6 244 12.5
2004-11-22 08:39:36 51°14.091 2°53.465 245.6 11.6 243 12.6
2004-11-22 08:39:40 51°14.085 2°53.446 245.7 11.7 243 12.5
2004-11-22 08:39:43 51°14.08 2°53.433 245.6 11.7 242 12.5
2004-11-22 08:39:55 51°14.062 2°53.378 245.4 11.8 242 12.3
2004-11-22 08:40:00 51°14.055 2°53.355 245.2 11.6 243 12.5
2004-11-22 08:40:02 51°14.052 2°53.346 245.5 11.8 242 12.5
2004-11-22 08:40:14 51°14.034 2°53.29 245.6 11.8 242 12.7
2004-11-22 08:40:20 51°14.025 2°53.263 245.5 11.7 242 12.7
2004-11-22 08:40:25 51°14.018 2°53.24 245.2 11.7 242 12.7
2004-11-22 08:40:42 51°13.993 2°53.163 245.3 11.6 242 12.9
2004-11-22 08:40:48 51°13.984 2°53.136 245.7 11.6 242 12.7
2004-11-22 08:40:52 51°13.979 2°53.118 245.3 11.4 244 12.8
2004-11-22 08:40:58 51°13.97 2°53.091 245.3 11.4 243 12.9
2004-11-22 08:41:02 51°13.965 2°53.073 245.3 11.5 244 13
2004-11-22 08:41:08 51°13.956 2°53.046 245.4 11.3 243 12.8
2004-11-22 08:41:13 51°13.949 2°53.024 245.1 11.4 243 12.9
2004-11-22 08:41:17 51°13.943 2°53.006 245.2 11.4 243 13.1
2004-11-22 08:41:22 51°13.936 2°52.984 244.8 11.3 242 13.1
2004-11-22 08:41:28 51°13.927 2°52.957 244.8 11.3 243 13.1
2004-11-22 08:41:33 51°13.92 2°52.935 245.2 11.2 245 12.9
2004-11-22 08:41:40 51°13.911 2°52.904 245.4 11.2 245 13
2004-11-22 08:41:52 51°13.894 2°52.85 245.6 11.3 243 13
2004-11-22 08:42:08 51°13.871 2°52.78 244.9 11.2 243 13.2
2004-11-22 08:42:13 51°13.863 2°52.758 245.3 11.3 242 13.1
2004-11-22 08:42:22 51°13.851 2°52.718 245.4 11.1 243 13.1
2004-11-22 08:42:28 51°13.843 2°52.692 245.5 11 244 13.1
2004-11-22 08:42:33 51°13.836 2°52.67 246 11 243 13.4
2004-11-22 08:42:37 51°13.83 2°52.652 245.6 11 243 13.4
2004-11-22 08:42:42 51°13.823 2°52.63 246 11.3 243 13.5
2004-11-22 08:42:48 51°13.815 2°52.604 246 11.3 243 13.3
2004-11-22 08:42:52 51°13.809 2°52.586 245.9 11.2 244 13.5
2004-11-22 08:42:58 51°13.801 2°52.559 246.1 11.2 244 13.2
2004-11-22 08:43:01 51°13.797 2°52.546 246 11.2 243 13.3
2004-11-22 08:43:08 51°13.786 2°52.515 245.9 11.2 243 13.4
2004-11-22 08:43:13 51°13.779 2°52.493 245.7 11.2 243 13.3
2004-11-22 08:43:18 51°13.772 2°52.471 245.7 11.2 242 13.4
2004-11-22 08:43:23 51°13.764 2°52.449 245.8 11.2 242 13.5
2004-11-22 08:43:28 51°13.757 2°52.427 245.4 11.2 242 13.5
2004-11-22 08:43:33 51°13.75 2°52.405 245.4 11.3 243 13.4
2004-11-22 08:43:36 51°13.746 2°52.392 245.9 11.3 243 13.5
2004-11-22 08:43:42 51°13.737 2°52.365 246 11.3 243 13.5
2004-11-22 08:43:48 51°13.729 2°52.338 246 11.2 243 13.4
2004-11-22 08:43:51 51°13.725 2°52.325 246.4 11.3 243 13.5
2004-11-22 08:44:02 51°13.709 2°52.276 246.5 11.4 244 13.6
2004-11-22 08:44:08 51°13.7 2°52.249 246.6 11.4 243 13.7
2004-11-22 08:44:11 51°13.696 2°52.235 246.5 11.4 244 13.7
2004-11-22 08:44:18 51°13.686 2°52.204 246.6 11.4 243 13.6
2004-11-22 08:44:23 51°13.679 2°52.181 246.6 11.4 243 13.5
2004-11-22 08:44:28 51°13.672 2°52.158 246.4 11.5 243 13.5
2004-11-22 08:44:32 51°13.667 2°52.14 246.5 11.5 243 13.6
2004-11-22 08:44:37 51°13.66 2°52.117 246.7 11.5 243 13.6
2004-11-22 08:44:42 51°13.653 2°52.094 246.7 11.5 243 13.5
2004-11-22 08:44:48 51°13.644 2°52.067 246.7 11.4 243 13.6
2004-11-22 08:44:49 51°13.643 2°52.063 246.1 11.5 242 13.6
2004-11-22 08:45:03 51°13.623 2°52 246 11.4 243 13.7
2004-11-22 08:45:15 51°13.605 2°51.946 246 11.6 242 13.7
2004-11-22 08:45:29 51°13.585 2°51.882 246.4 11.5 243 13.5
2004-11-22 08:45:34 51°13.577 2°51.859 246 11.5 243 13.6
2004-11-22 08:45:39 51°13.57 2°51.837 246.5 11.3 242 13.4
2004-11-22 08:45:45 51°13.561 2°51.811 246 11.2 242 13.5
2004-11-22 08:45:48 51°13.557 2°51.798 245.6 11.4 242 13.6
2004-11-22 08:45:54 51°13.548 2°51.771 245.8 11.4 243 13.6
2004-11-22 08:46:00 51°13.539 2°51.744 246.1 11.4 243 13.7
2004-11-22 08:46:03 51°13.535 2°51.731 246.6 11.4 243 13.5
2004-11-22 08:46:18 51°13.514 2°51.663 246.2 11.5 244 13.6
2004-11-22 08:46:23 51°13.506 2°51.641 246.6 11.5 243 13.8
2004-11-22 08:46:38 51°13.484 2°51.572 246 11.6 242 13.9
2004-11-22 08:46:42 51°13.478 2°51.554 245.5 11.6 242 14.1
2004-11-22 08:46:48 51°13.469 2°51.527 245.5 11.5 242 13.9
2004-11-22 08:46:51 51°13.464 2°51.514 245.6 11.6 241 13.9
2004-11-22 08:46:58 51°13.454 2°51.482 245.3 11.6 243 14
2004-11-22 08:47:02 51°13.448 2°51.463 245.9 11.7 243 13.8
2004-11-22 08:47:08 51°13.439 2°51.435 246.6 11.7 243 13.9
2004-11-22 08:47:10 51°13.437 2°51.426 246.3 11.6 243 13.8
2004-11-22 08:47:16 51°13.428 2°51.399 246.7 11.6 243 14
2004-11-22 08:47:20 51°13.422 2°51.381 246.3 11.6 243 13.7
2004-11-22 08:47:28 51°13.41 2°51.345 246.2 11.5 242 14
2004-11-22 08:47:32 51°13.404 2°51.327 245.7 11.6 241 14.1
2004-11-22 08:47:37 51°13.397 2°51.304 245.8 11.5 244 13.9
2004-11-22 08:47:42 51°13.39 2°51.282 246 11.5 242 13.7
2004-11-22 08:47:48 51°13.381 2°51.255 245.9 11.5 242 13.9
2004-11-22 08:47:53 51°13.373 2°51.232 246 11.5 241 14
2004-11-22 08:48:07 51°13.353 2°51.168 245.9 11.6 243 14.1
2004-11-22 08:48:12 51°13.345 2°51.145 246 11.7 243 14.1
2004-11-22 08:48:16 51°13.339 2°51.127 246.7 11.6 244 14.1
2004-11-22 08:48:22 51°13.331 2°51.099 246.9 11.7 243 14.2
2004-11-22 08:48:27 51°13.323 2°51.076 246.6 11.7 244 14.1
2004-11-22 08:48:41 51°13.303 2°51.012 246.6 11.5 243 13.9
2004-11-22 08:48:48 51°13.293 2°50.981 246.3 11.4 244 14
2004-11-22 08:48:52 51°13.288 2°50.963 246.9 11.4 244 14
2004-11-22 08:48:55 51°13.283 2°50.949 246.7 11.4 244 14.2
2004-11-22 08:49:06 51°13.266 2°50.9 245.1 11.4 240 14.2
2004-11-22 08:49:12 51°13.257 2°50.874 244 11.5 240 14.1
2004-11-22 08:49:17 51°13.249 2°50.852 243.3 11.5 240 14.4
2004-11-22 08:49:22 51°13.241 2°50.83 243.6 11.5 240 14.2
2004-11-22 08:49:26 51°13.234 2°50.813 243 11.5 239 13.9
2004-11-22 08:49:32 51°13.224 2°50.787 242.5 11.5 239 14.1
2004-11-22 08:49:34 51°13.22 2°50.778 242.5 11.5 239 14.1
2004-11-22 08:49:44 51°13.204 2°50.734 242.6 11.6 239 14.1
2004-11-22 08:49:50 51°13.194 2°50.707 242.4 11.6 238 14.1
2004-11-22 08:49:56 51°13.184 2°50.681 242.7 11.6 238 14.3
2004-11-22 08:49:58 51°13.18 2°50.672 242.8 11.6 240 14.2
2004-11-22 08:50:06 51°13.167 2°50.637 243.2 11.7 240 14
2004-11-22 08:50:11 51°13.159 2°50.615 242.7 11.7 240 14.3
2004-11-22 08:50:16 51°13.151 2°50.592 242.8 11.7 239 14.2
2004-11-22 08:50:20 51°13.144 2°50.574 243 11.6 240 14.3
2004-11-22 08:50:26 51°13.134 2°50.549 243.1 11.6 239 14.2
2004-11-22 08:50:31 51°13.126 2°50.526 242.7 11.7 239 14.2
2004-11-22 08:50:36 51°13.118 2°50.504 242.8 11.7 239 14.2
2004-11-22 08:50:51 51°13.092 2°50.439 242.4 11.5 237 14.4
2004-11-22 08:51:00 51°13.077 2°50.4 242.3 11.4 239 14.2
2004-11-22 08:51:05 51°13.068 2°50.378 242.5 11.5 238 14.2
2004-11-22 08:51:10 51°13.06 2°50.356 242.5 11.5 238 14.2
2004-11-22 08:51:14 51°13.053 2°50.339 243.3 11.7 239 14.3
2004-11-22 08:51:24 51°13.037 2°50.295 243.8 11.6 239 14.2
2004-11-22 08:51:30 51°13.028 2°50.268 243.5 11.6 240 14.4
2004-11-22 08:51:36 51°13.017 2°50.241 243.3 11.6 239 14.3
2004-11-22 08:51:41 51°13.01 2°50.219 243.5 11.6 241 14.3
2004-11-22 08:51:46 51°13.001 2°50.197 243.8 11.7 239 14.4
2004-11-22 08:51:48 51°12.998 2°50.188 243.5 11.6 239 14.3
2004-11-22 08:51:54 51°12.988 2°50.161 243.7 11.6 239 14.2
2004-11-22 08:52:15 51°12.953 2°50.068 243.3 11.8 240 14.3
2004-11-22 08:52:18 51°12.948 2°50.055 243.7 11.8 240 14.3
2004-11-22 08:52:25 51°12.937 2°50.023 243.8 11.6 240 14.6
2004-11-22 08:52:30 51°12.929 2°50.001 243.6 11.6 240 14.4
2004-11-22 08:52:32 51°12.926 2°49.992 243.3 11.6 240 14.4
2004-11-22 08:52:38 51°12.916 2°49.965 243.8 11.7 240 14.5
2004-11-22 08:52:45 51°12.905 2°49.935 243.6 11.6 240 14.5
2004-11-22 08:52:50 51°12.896 2°49.913 243.4 11.8 238 14.5
2004-11-22 08:52:54 51°12.89 2°49.895 242.9 11.8 238 14.4
2004-11-22 08:53:00 51°12.879 2°49.869 243.2 11.7 238 14.5
2004-11-22 08:53:04 51°12.873 2°49.851 242.7 11.8 240 14.4
2004-11-22 08:53:10 51°12.863 2°49.824 243 11.7 239 14.6
2004-11-22 08:53:14 51°12.856 2°49.807 243.1 11.7 239 14.4
2004-11-22 08:53:20 51°12.846 2°49.78 242.7 11.7 239 14.5
2004-11-22 08:53:25 51°12.837 2°49.758 243.2 11.7 239 14.4
2004-11-22 08:53:30 51°12.829 2°49.736 243.1 11.7 239 14.5
2004-11-22 08:53:35 51°12.821 2°49.713 243.4 11.7 240 14.6
2004-11-22 08:53:40 51°12.812 2°49.691 243.6 11.8 239 14.4
2004-11-22 08:53:44 51°12.806 2°49.673 243.2 11.8 239 14.6
2004-11-22 08:53:48 51°12.799 2°49.655 243.1 11.8 239 14.5
2004-11-22 08:53:54 51°12.789 2°49.629 243.1 11.6 239 14.5
2004-11-22 08:54:06 51°12.769 2°49.576 242.8 11.6 238 14.5
2004-11-22 08:54:11 51°12.76 2°49.554 243.1 11.6 238 14.6
2004-11-22 08:54:16 51°12.752 2°49.533 242.9 11.6 238 14.4
2004-11-22 08:54:20 51°12.745 2°49.515 242.8 11.7 239 14.6
2004-11-22 08:54:24 51°12.739 2°49.497 243.4 11.5 240 14.6
2004-11-22 08:54:30 51°12.729 2°49.471 244 11.6 239 14.5
2004-11-22 08:54:36 51°12.719 2°49.444 243.6 11.6 239 14.6
2004-11-22 08:54:40 51°12.713 2°49.426 243.8 11.4 239 14.7
2004-11-22 08:54:45 51°12.705 2°49.404 243.8 11.6 240 14.5
2004-11-22 08:54:50 51°12.696 2°49.383 243.2 11.6 239 14.5
2004-11-22 08:54:56 51°12.686 2°49.356 243.2 11.6 239 14.6
2004-11-22 08:55:01 51°12.678 2°49.334 243.2 11.7 239 14.7
2004-11-22 08:55:05 51°12.672 2°49.316 243.3 11.7 240 14.7
2004-11-22 08:55:16 51°12.653 2°49.267 243.6 11.7 240 14.7
2004-11-22 08:55:21 51°12.645 2°49.244 243.4 11.8 240 14.6
2004-11-22 08:55:26 51°12.637 2°49.222 243.2 11.8 239 14.7
2004-11-22 08:55:30 51°12.63 2°49.204 243.2 11.8 238 14.6
2004-11-22 08:55:36 51°12.62 2°49.178 243.1 11.8 239 14.7
2004-11-22 08:55:41 51°12.611 2°49.155 243.1 11.8 239 14.7
2004-11-22 08:55:53 51°12.592 2°49.101 243.5 11.8 240 14.8
2004-11-22 08:56:02 51°12.577 2°49.061 243.1 11.8 241 14.7
2004-11-22 08:56:08 51°12.567 2°49.035 243.3 11.8 240 14.7
2004-11-22 08:56:20 51°12.547 2°48.981 243.4 11.7 240 14.6
2004-11-22 08:56:25 51°12.539 2°48.958 242.7 11.9 239 14.7
2004-11-22 08:56:30 51°12.531 2°48.936 243 11.8 239 14.8
2004-11-22 08:56:34 51°12.524 2°48.918 242.7 11.7 239 14.6
2004-11-22 08:56:38 51°12.517 2°48.9 242.9 11.7 239 14.5
2004-11-22 08:56:53 51°12.492 2°48.834 242.7 11.7 240 14.5
2004-11-22 08:57:02 51°12.477 2°48.793 243.7 11.8 240 14.8
2004-11-22 08:57:08 51°12.467 2°48.766 243.5 11.8 239 14.7
2004-11-22 08:57:20 51°12.447 2°48.713 242.8 11.8 238 14.8
2004-11-22 08:57:25 51°12.438 2°48.691 242.7 11.8 239 14.7
2004-11-22 08:57:30 51°12.43 2°48.668 243.1 11.8 240 14.7
2004-11-22 08:57:34 51°12.423 2°48.65 243.1 11.8 241 14.9
2004-11-22 08:57:38 51°12.417 2°48.632 243.7 11.8 241 14.8
2004-11-22 08:57:54 51°12.391 2°48.561 243 11.5 241 14.7
2004-11-22 08:58:00 51°12.381 2°48.536 243.2 11.5 241 14.7
2004-11-22 08:58:04 51°12.374 2°48.518 242.7 11.7 240 14.8
2004-11-22 08:58:09 51°12.366 2°48.496 243.1 11.7 239 14.8
2004-11-22 08:58:14 51°12.357 2°48.474 243.2 11.7 239 14.6
2004-11-22 08:58:17 51°12.352 2°48.461 243 11.6 237 14.9
2004-11-22 08:58:23 51°12.342 2°48.435 242.5 11.5 238 14.8
2004-11-22 08:58:30 51°12.331 2°48.404 243.3 11.6 239 14.9
2004-11-22 08:58:34 51°12.325 2°48.386 243.4 11.6 241 14.7
2004-11-22 08:58:40 51°12.315 2°48.36 243.8 11.6 241 14.8
2004-11-22 08:58:45 51°12.307 2°48.337 243.5 11.6 240 14.6
2004-11-22 08:58:47 51°12.304 2°48.328 243.4 11.6 240 14.7
2004-11-22 08:59:02 51°12.279 2°48.263 243 11.7 239 14.6
2004-11-22 08:59:08 51°12.27 2°48.236 243 11.6 240 14.7
2004-11-22 08:59:10 51°12.266 2°48.227 243.3 11.6 239 14.7
2004-11-22 08:59:18 51°12.253 2°48.192 243.1 11.7 239 14.7
2004-11-22 08:59:23 51°12.245 2°48.171 243.5 11.6 238 14.9
2004-11-22 08:59:26 51°12.24 2°48.158 243.1 11.6 238 14.8
2004-11-22 08:59:31 51°12.232 2°48.136 242.6 11.5 240 15
2004-11-22 08:59:38 51°12.22 2°48.105 243.3 11.5 239 14.8
2004-11-22 08:59:43 51°12.212 2°48.083 243.1 11.5 239 14.6
2004-11-22 08:59:48 51°12.204 2°48.062 243.4 11.5 239 14.9
2004-11-22 08:59:50 51°12.201 2°48.053 242.9 11.5 239 14.8
2004-11-22 09:00:14 51°12.162 2°47.947 243.4 11.6 240 14.8
2004-11-22 09:00:18 51°12.155 2°47.929 243.4 11.7 240 14.7
2004-11-22 09:00:24 51°12.146 2°47.902 243.4 11.8 240 14.8
2004-11-22 09:00:28 51°12.139 2°47.884 243.4 11.8 240 14.7
2004-11-22 09:00:34 51°12.129 2°47.858 242.6 11.8 239 14.7
2004-11-22 09:00:40 51°12.118 2°47.831 242.7 11.8 239 14.8
2004-11-22 09:00:43 51°12.113 2°47.818 242.5 11.8 239 14.7
2004-11-22 09:00:50 51°12.102 2°47.787 242.6 11.7 239 14.6
2004-11-22 09:00:52 51°12.099 2°47.778 242.8 11.7 240 14.8
2004-11-22 09:01:00 51°12.085 2°47.742 243.3 11.7 239 14.7
2004-11-22 09:01:05 51°12.077 2°47.719 243.4 11.8 240 14.7
2004-11-22 09:01:10 51°12.069 2°47.697 243.5 11.7 240 14.8
2004-11-22 09:01:12 51°12.066 2°47.688 243.8 11.9 240 14.7
2004-11-22 09:01:20 51°12.053 2°47.651 244 11.8 240 14.6
2004-11-22 09:01:25 51°12.045 2°47.629 243.8 11.9 240 14.6
2004-11-22 09:01:30 51°12.036 2°47.606 243.7 11.9 239 14.7
2004-11-22 09:01:34 51°12.03 2°47.588 243.5 11.8 239 14.6
2004-11-22 09:01:40 51°12.02 2°47.561 243.3 11.8 240 14.7
2004-11-22 09:01:45 51°12.012 2°47.538 243.6 11.8 240 14.6
2004-11-22 09:01:48 51°12.007 2°47.525 243.8 11.8 240 14.7
2004-11-22 09:01:55 51°11.996 2°47.493 243.6 11.7 240 14.7
2004-11-22 09:02:14 51°11.964 2°47.409 242.6 11.8 240 14.6
2004-11-22 09:02:19 51°11.956 2°47.386 243.3 11.8 240 14.6
2004-11-22 09:02:30 51°11.938 2°47.337 243.8 11.8 239 14.7
2004-11-22 09:02:36 51°11.928 2°47.309 243.5 12 240 14.7
2004-11-22 09:02:40 51°11.922 2°47.291 243.5 11.9 240 14.6
2004-11-22 09:02:46 51°11.912 2°47.264 243.2 11.8 239 14.5
2004-11-22 09:02:48 51°11.908 2°47.255 243.1 11.9 238 14.3
2004-11-22 09:03:23 51°11.849 2°47.097 242.8 -999 -999 14.3
2004-11-22 09:03:28 51°11.841 2°47.074 242.9 -999 -999 14.2
2004-11-22 09:03:30 51°11.838 2°47.065 243.3 11.9 240 14.4
2004-11-22 09:03:44 51°11.815 2°47.001 243.8 11.8 239 14.1
2004-11-22 09:03:51 51°11.803 2°46.97 242.6 11.8 239 14.2
2004-11-22 09:03:54 51°11.798 2°46.956 243.1 11.8 239 14.1
2004-11-22 09:03:58 51°11.791 2°46.939 243 11.9 240 13.9
2004-11-22 09:04:04 51°11.781 2°46.912 243 11.8 239 14.3
2004-11-22 09:04:10 51°11.771 2°46.885 243.1 11.7 239 14.2
2004-11-22 09:04:14 51°11.765 2°46.867 243.3 11.7 240 14.2
2004-11-22 09:04:20 51°11.755 2°46.84 243.4 11.8 240 14.3
2004-11-22 09:04:26 51°11.745 2°46.813 243.4 11.8 240 14.2
2004-11-22 09:04:28 51°11.742 2°46.804 243.7 11.8 241 14.3
2004-11-22 09:04:36 51°11.729 2°46.767 244.1 11.9 240 14.2
2004-11-22 09:04:41 51°11.721 2°46.744 244.2 11.9 241 14.2
2004-11-22 09:04:46 51°11.712 2°46.722 243.8 11.9 241 14.1
2004-11-22 09:04:50 51°11.706 2°46.703 243.7 11.9 240 14.1
2004-11-22 09:04:54 51°11.699 2°46.685 243.5 11.9 240 14
2004-11-22 09:05:00 51°11.69 2°46.658 243.4 12 240 14.1
2004-11-22 09:05:06 51°11.679 2°46.631 243.6 11.9 240 14.1
2004-11-22 09:05:10 51°11.672 2°46.613 242.9 11.8 239 14.1
2004-11-22 09:05:16 51°11.662 2°46.586 242.5 11.9 239 14
2004-11-22 09:05:18 51°11.659 2°46.576 242.9 12 239 14.1
2004-11-22 09:05:26 51°11.645 2°46.54 243.1 12.1 238 14
2004-11-22 09:05:30 51°11.639 2°46.523 243.1 11.7 237 14.3
2004-11-22 09:05:36 51°11.628 2°46.497 242.4 11.7 237 14
2004-11-22 09:05:40 51°11.621 2°46.479 241.9 11.7 237 14
2004-11-22 09:05:46 51°11.611 2°46.452 242.9 11.8 240 14.1
2004-11-22 09:05:51 51°11.603 2°46.429 243.6 11.8 241 14.1
2004-11-22 09:05:56 51°11.595 2°46.407 243.8 11.7 240 13.9
2004-11-22 09:06:00 51°11.588 2°46.388 243.5 11.9 240 14
2004-11-22 09:06:06 51°11.578 2°46.361 243.3 11.9 240 14.1
2004-11-22 09:06:10 51°11.571 2°46.343 243 11.9 239 14
2004-11-22 09:06:23 51°11.55 2°46.284 243.1 12 239 14
2004-11-22 09:06:28 51°11.541 2°46.262 243 12 239 13.9
2004-11-22 09:06:33 51°11.533 2°46.239 243.1 11.9 240 13.9
2004-11-22 09:06:38 51°11.525 2°46.216 243.3 11.9 240 13.9
2004-11-22 09:06:42 51°11.518 2°46.198 243.4 11.9 239 13.9
2004-11-22 09:06:55 51°11.496 2°46.139 243.4 11.9 239 13.7
2004-11-22 09:07:00 51°11.488 2°46.116 243 11.9 239 13.8
2004-11-22 09:07:05 51°11.479 2°46.093 243 12 239 13.7
2004-11-22 09:07:10 51°11.471 2°46.07 243.4 12 241 13.7
2004-11-22 09:07:14 51°11.464 2°46.052 243.8 11.9 240 13.4
2004-11-22 09:07:20 51°11.455 2°46.024 243.8 11.9 240 13.6
2004-11-22 09:07:23 51°11.45 2°46.011 243.8 11.9 241 13.7
2004-11-22 09:07:30 51°11.438 2°45.979 244.2 11.9 241 13.5
2004-11-22 09:07:34 51°11.432 2°45.961 243.8 11.8 240 13.5
2004-11-22 09:07:54 51°11.398 2°45.87 243.4 11.9 240 13.5
2004-11-22 09:07:58 51°11.391 2°45.853 242.8 11.8 239 13.4
2004-11-22 09:08:04 51°11.381 2°45.826 242.4 11.9 238 13.5
2004-11-22 09:08:08 51°11.374 2°45.807 242.7 11.8 241 13.4
2004-11-22 09:08:14 51°11.364 2°45.78 243.3 11.8 240 13.4
2004-11-22 09:08:19 51°11.357 2°45.757 243.7 11.9 241 13.4
2004-11-22 09:08:24 51°11.348 2°45.734 243.8 11.9 241 13.4
2004-11-22 09:08:28 51°11.341 2°45.716 243.4 12.1 240 13.5
2004-11-22 09:08:32 51°11.335 2°45.698 243.3 12 240 13.4
2004-11-22 09:08:39 51°11.323 2°45.666 242.8 12 240 13.2
2004-11-22 09:08:54 51°11.303 2°45.594 248.8 11.9 246 13.2
2004-11-22 09:09:00 51°11.295 2°45.564 250.1 11.7 249 13.1
2004-11-22 09:09:02 51°11.293 2°45.555 251.2 12 250 13.2
2004-11-22 09:09:14 51°11.28 2°45.495 253.6 11.8 251 13.2
2004-11-22 09:09:19 51°11.275 2°45.471 253.5 11.8 250 13.2
2004-11-22 09:09:24 51°11.269 2°45.445 253.3 12 251 13.2
2004-11-22 09:09:30 51°11.263 2°45.415 254 12 252 13.2
2004-11-22 09:09:34 51°11.259 2°45.395 254.7 12 253 13.3
2004-11-22 09:09:40 51°11.253 2°45.364 255 12 253 13.4
2004-11-22 09:09:45 51°11.248 2°45.339 255 12.1 252 13.4
2004-11-22 09:09:50 51°11.243 2°45.314 254.4 12 252 13.3
2004-11-22 09:09:54 51°11.239 2°45.293 254.4 12.1 252 13.3
2004-11-22 09:10:00 51°11.233 2°45.263 254 12.1 252 13.4
2004-11-22 09:10:04 51°11.229 2°45.242 254.3 12.1 253 13.3
2004-11-22 09:10:10 51°11.223 2°45.212 254.7 12.1 253 13.4
2004-11-22 09:10:15 51°11.217 2°45.186 254.7 12 253 13.3
2004-11-22 09:10:31 51°11.2 2°45.106 253.6 12.1 251 13.5
2004-11-22 09:10:36 51°11.195 2°45.081 253.6 11.9 251 13.3
2004-11-22 09:10:41 51°11.19 2°45.056 253.5 12 251 13.6
2004-11-22 09:10:45 51°11.186 2°45.036 253.8 12 252 13.4
2004-11-22 09:10:51 51°11.179 2°45.006 253.9 12 252 13.4
2004-11-22 09:10:54 51°11.177 2°44.991 253.9 12 253 13.5
2004-11-22 09:11:13 51°11.156 2°44.896 253.5 11.9 250 13.4
2004-11-22 09:11:20 51°11.149 2°44.861 253.5 11.9 250 13.5
2004-11-22 09:11:22 51°11.147 2°44.851 253.8 11.8 252 13.5
2004-11-22 09:11:30 51°11.138 2°44.811 253.8 11.8 252 13.4
2004-11-22 09:11:54 51°11.112 2°44.692 253.3 12 250 13.6
2004-11-22 09:12:00 51°11.106 2°44.662 253.3 11.9 250 13.5
2004-11-22 09:12:04 51°11.102 2°44.642 253 11.9 250 13.6
2004-11-22 09:12:10 51°11.096 2°44.612 253.4 11.9 252 13.5
2004-11-22 09:12:12 51°11.094 2°44.602 254 11.9 252 13.6
2004-11-22 09:12:22 51°11.082 2°44.553 253.4 11.9 250 13.6
2004-11-22 09:12:28 51°11.076 2°44.523 253.1 11.9 250 13.6
2004-11-22 09:12:32 51°11.072 2°44.503 253.3 11.9 250 13.6
2004-11-22 09:12:38 51°11.065 2°44.473 253.3 11.9 250 13.5
2004-11-22 09:12:43 51°11.06 2°44.448 253.5 11.9 252 13.5
2004-11-22 09:12:47 51°11.056 2°44.428 253.9 12 252 13.6
2004-11-22 09:12:52 51°11.051 2°44.403 253.9 12 251 13.6
2004-11-22 09:13:03 51°11.039 2°44.347 253.2 12.1 251 13.7
2004-11-22 09:13:08 51°11.033 2°44.322 253.4 12.1 251 13.5
2004-11-22 09:13:13 51°11.028 2°44.298 253.2 12 251 13.7
2004-11-22 09:13:18 51°11.022 2°44.273 253.2 12 251 13.5
2004-11-22 09:13:22 51°11.018 2°44.253 253.3 11.9 251 13.5
2004-11-22 09:13:34 51°11.005 2°44.193 252.6 12 251 13.6
2004-11-22 09:13:40 51°10.998 2°44.163 252.8 12 250 13.6
2004-11-22 09:13:45 51°10.992 2°44.138 253.2 12 250 13.7
2004-11-22 09:13:48 51°10.989 2°44.123 253.2 12 250 13.5
2004-11-22 09:13:54 51°10.982 2°44.093 253.6 11.9 251 13.7
2004-11-22 09:14:06 51°10.97 2°44.033 253.4 12 251 13.6
2004-11-22 09:14:12 51°10.964 2°44.002 253.5 12 251 13.5
2004-11-22 09:14:17 51°10.958 2°43.977 254 12 251 13.6
2004-11-22 09:14:21 51°10.954 2°43.957 254 12 251 13.6
2004-11-22 09:14:27 51°10.948 2°43.927 254.2 12 252 13.6
2004-11-22 09:14:32 51°10.943 2°43.902 254.3 12 251 13.8
2004-11-22 09:14:37 51°10.937 2°43.877 254.2 12 251 13.7
2004-11-22 09:14:42 51°10.932 2°43.852 253.7 12 251 13.7
2004-11-22 09:14:47 51°10.926 2°43.827 253.5 12 251 13.7
2004-11-22 09:14:52 51°10.921 2°43.802 253.5 12 251 13.7
2004-11-22 09:14:56 51°10.917 2°43.782 253.9 12 251 13.6
2004-11-22 09:15:02 51°10.91 2°43.751 253.6 12 252 13.7
2004-11-22 09:15:06 51°10.906 2°43.731 253.8 12 251 13.7
2004-11-22 09:15:12 51°10.899 2°43.701 253.8 12 251 13.7
2004-11-22 09:15:14 51°10.897 2°43.691 253.2 12.1 251 13.8
2004-11-22 09:15:20 51°10.891 2°43.661 253.3 12.1 251 13.6
2004-11-22 09:15:26 51°10.884 2°43.631 253.4 11.9 251 13.8
2004-11-22 09:15:32 51°10.878 2°43.601 253.2 11.9 251 13.7
2004-11-22 09:15:34 51°10.876 2°43.591 253.3 11.9 252 13.7
2004-11-22 09:15:42 51°10.868 2°43.551 254 12 252 13.7
2004-11-22 09:15:45 51°10.864 2°43.536 253.8 12 251 13.6
2004-11-22 09:15:52 51°10.857 2°43.501 253.4 12 251 13.7
2004-11-22 09:15:56 51°10.853 2°43.481 253.5 12 251 13.7
2004-11-22 09:16:02 51°10.846 2°43.45 253.9 12 252 13.7
2004-11-22 09:16:07 51°10.841 2°43.425 254.1 12 251 13.7
2004-11-22 09:16:12 51°10.836 2°43.4 254 11.9 252 13.7
2004-11-22 09:16:23 51°10.824 2°43.346 253.4 11.9 252 13.6
2004-11-22 09:16:28 51°10.819 2°43.321 253.6 11.9 252 13.7
2004-11-22 09:16:33 51°10.814 2°43.296 253.5 11.9 251 13.6
2004-11-22 09:16:38 51°10.808 2°43.271 253.3 11.9 251 13.8
2004-11-22 09:16:42 51°10.804 2°43.251 253 11.9 251 13.6
2004-11-22 09:16:55 51°10.79 2°43.186 252.8 12 250 13.7
2004-11-22 09:16:58 51°10.786 2°43.171 252.9 12 251 13.7
2004-11-22 09:17:04 51°10.78 2°43.141 253.1 12.1 251 13.7
2004-11-22 09:17:10 51°10.773 2°43.111 253.3 12.1 251 13.7
2004-11-22 09:17:15 51°10.767 2°43.086 253.1 12.1 251 13.7
2004-11-22 09:17:20 51°10.762 2°43.06 252.8 12.1 250 13.8
2004-11-22 09:17:24 51°10.758 2°43.04 252.7 12.1 250 13.7
2004-11-22 09:17:38 51°10.743 2°42.97 253.3 11.9 251 13.9
2004-11-22 09:17:43 51°10.738 2°42.945 253.6 11.9 251 13.8
2004-11-22 09:17:48 51°10.732 2°42.921 253.4 11.9 251 13.8
2004-11-22 09:17:50 51°10.73 2°42.911 252.8 11.9 251 13.8
2004-11-22 09:18:14 51°10.704 2°42.792 253.6 11.9 252 13.8
2004-11-22 09:18:18 51°10.7 2°42.772 254.1 11.9 252 13.8
2004-11-22 09:18:24 51°10.694 2°42.742 253.8 11.9 252 13.8
2004-11-22 09:18:30 51°10.687 2°42.712 253.6 11.9 252 13.9
2004-11-22 09:18:58 51°10.66 2°42.573 254.9 11.8 258 13.8
2004-11-22 09:19:02 51°10.657 2°42.553 258.3 11.8 259 13.7
2004-11-22 09:19:08 51°10.654 2°42.522 260.1 11.8 259 13.9
2004-11-22 09:19:12 51°10.652 2°42.501 261.6 11.8 261 13.9
2004-11-22 09:19:18 51°10.65 2°42.47 262.7 11.9 262 13.9
2004-11-22 09:19:22 51°10.648 2°42.449 263.8 11.9 262 13.8
2004-11-22 09:19:26 51°10.647 2°42.428 264.3 11.9 264 13.9
2004-11-22 09:19:32 51°10.645 2°42.396 264.7 12 265 14
2004-11-22 09:19:38 51°10.643 2°42.365 265.1 11.9 264 13.9
2004-11-22 09:19:42 51°10.641 2°42.344 264.9 11.9 264 14.1
2004-11-22 09:19:48 51°10.638 2°42.312 264.4 11.9 262 14.1
2004-11-22 09:19:53 51°10.635 2°42.287 263.6 11.9 261 14.1
2004-11-22 09:19:58 51°10.633 2°42.261 263.4 11.9 262 14.2
2004-11-22 09:20:02 51°10.631 2°42.24 263.4 11.9 262 14.2
2004-11-22 09:20:08 51°10.628 2°42.209 262.9 12 261 14.3
2004-11-22 09:20:13 51°10.625 2°42.183 261.5 11.9 259 14.2
2004-11-22 09:20:18 51°10.622 2°42.157 260.7 11.9 259 14.2
2004-11-22 09:20:20 51°10.62 2°42.147 260.1 12 258 14.4
2004-11-22 09:20:34 51°10.61 2°42.075 258.8 12 257 14.3
2004-11-22 09:20:38 51°10.607 2°42.054 258.3 12 257 14.4
2004-11-22 09:20:44 51°10.602 2°42.024 258.2 12 257 14.4
2004-11-22 09:20:48 51°10.599 2°42.003 258 12 257 14.4
2004-11-22 09:20:54 51°10.594 2°41.972 258 12 256 14.4
2004-11-22 09:20:56 51°10.592 2°41.962 258 12.1 256 14.5
2004-11-22 09:21:06 51°10.584 2°41.91 257.9 12 256 14.4
2004-11-22 09:21:10 51°10.581 2°41.89 257.4 12.1 256 14.4
2004-11-22 09:21:14 51°10.578 2°41.869 257.6 12.1 257 14.4
2004-11-22 09:21:21 51°10.572 2°41.833 258.1 12.1 256 14.4
2004-11-22 09:21:26 51°10.568 2°41.807 258.3 12.1 257 14.5
2004-11-22 09:21:30 51°10.565 2°41.787 258.3 12 256 14.4
2004-11-22 09:21:36 51°10.56 2°41.756 258.2 12 256 14.5
2004-11-22 09:21:39 51°10.558 2°41.74 258.2 11.9 257 14.4
2004-11-22 09:21:45 51°10.553 2°41.709 258.4 12 257 14.5
2004-11-22 09:21:51 51°10.549 2°41.679 258.4 12 258 14.6
2004-11-22 09:21:56 51°10.546 2°41.653 258.7 12 258 14.4
2004-11-22 09:22:00 51°10.543 2°41.632 259 12 258 14.6
2004-11-22 09:22:06 51°10.538 2°41.601 259.2 12 258 14.7
2004-11-22 09:22:10 51°10.535 2°41.58 258.7 12.1 257 14.6
2004-11-22 09:22:14 51°10.532 2°41.559 258.5 12.2 257 14.5
2004-11-22 09:22:21 51°10.527 2°41.523 258.3 12.1 256 14.6
2004-11-22 09:22:26 51°10.523 2°41.497 258 12 257 14.6
2004-11-22 09:22:30 51°10.52 2°41.477 258.2 11.9 257 14.5
2004-11-22 09:22:36 51°10.515 2°41.446 258.5 11.9 257 14.7
2004-11-22 09:22:38 51°10.514 2°41.436 257.9 12 256 14.7
2004-11-22 09:22:46 51°10.508 2°41.395 257.8 12 256 14.6
2004-11-22 09:22:50 51°10.505 2°41.374 258.3 12 256 14.8
2004-11-22 09:22:56 51°10.501 2°41.344 258.9 12 256 14.7
2004-11-22 09:23:00 51°10.498 2°41.323 258.8 11.9 257 14.7
2004-11-22 09:23:06 51°10.494 2°41.292 258.6 11.9 257 14.7
2004-11-22 09:23:10 51°10.491 2°41.272 258.6 11.9 257 14.7
2004-11-22 09:23:16 51°10.486 2°41.241 257.7 12 256 14.7
2004-11-22 09:23:20 51°10.483 2°41.22 258.3 12 256 14.7
2004-11-22 09:23:26 51°10.479 2°41.19 258.4 11.9 257 14.9
2004-11-22 09:23:27 51°10.478 2°41.185 258.1 11.9 257 14.7
2004-11-22 09:23:36 51°10.471 2°41.139 258 11.9 257 14.7
2004-11-22 09:23:41 51°10.468 2°41.113 258.3 11.8 257 14.9
2004-11-22 09:23:46 51°10.464 2°41.088 258.5 11.8 257 14.9
2004-11-22 09:23:48 51°10.462 2°41.078 258.8 11.8 257 14.9
2004-11-22 09:23:56 51°10.456 2°41.037 258.5 11.9 257 14.8
2004-11-22 09:24:00 51°10.453 2°41.017 258.2 11.9 256 14.9
2004-11-22 09:24:06 51°10.449 2°40.986 258.2 11.9 257 14.9
2004-11-22 09:24:22 51°10.437 2°40.904 258.7 11.8 258 14.8
2004-11-22 09:24:42 51°10.423 2°40.801 258.7 11.8 256 15
2004-11-22 09:24:48 51°10.418 2°40.771 258.3 11.9 257 15.1
2004-11-22 09:24:52 51°10.416 2°40.75 258.3 11.9 257 15
2004-11-22 09:24:57 51°10.412 2°40.725 258.7 11.9 257 15.2
2004-11-22 09:25:02 51°10.409 2°40.699 259.1 11.9 257 14.9
2004-11-22 09:25:06 51°10.406 2°40.679 258.8 11.8 258 15.1
2004-11-22 09:25:12 51°10.401 2°40.649 258.7 11.8 257 15.1
2004-11-22 09:25:16 51°10.399 2°40.628 258.5 11.8 258 15.1
2004-11-22 09:25:21 51°10.395 2°40.603 258.5 11.7 257 15.2
2004-11-22 09:25:25 51°10.392 2°40.583 258 11.7 256 15.2
2004-11-22 09:25:35 51°10.384 2°40.533 257.6 11.6 255 15.1
2004-11-22 09:25:39 51°10.381 2°40.512 257.9 11.8 257 15.1
2004-11-22 09:25:45 51°10.376 2°40.482 258.4 11.9 256 15.2
2004-11-22 09:25:55 51°10.368 2°40.431 258.5 11.8 256 15.3
2004-11-22 09:25:59 51°10.365 2°40.41 258.9 11.9 257 15.3
2004-11-22 09:26:05 51°10.361 2°40.38 258.7 11.9 257 15.4
2004-11-22 09:26:15 51°10.354 2°40.328 258.9 12 257 15.3
2004-11-22 09:26:19 51°10.351 2°40.307 259.1 12.1 258 15.5
2004-11-22 09:26:25 51°10.346 2°40.276 259 12.1 257 15.4
2004-11-22 09:26:35 51°10.339 2°40.224 258.7 12 257 15.5
2004-11-22 09:26:39 51°10.336 2°40.204 258.3 12 256 15.5
2004-11-22 09:26:45 51°10.331 2°40.173 258.4 12 256 15.6
2004-11-22 09:26:55 51°10.323 2°40.122 257.7 11.8 256 15.5
2004-11-22 09:26:59 51°10.32 2°40.102 258.4 11.8 258 15.6
2004-11-22 09:27:05 51°10.316 2°40.072 258.7 11.8 257 15.6
2004-11-22 09:27:15 51°10.31 2°40.021 259.1 11.7 258 15.8
2004-11-22 09:27:19 51°10.307 2°40.001 259.1 11.6 256 15.8
2004-11-22 09:27:25 51°10.302 2°39.971 258.4 11.5 257 16
2004-11-22 09:27:35 51°10.295 2°39.921 257.9 11.5 256 16
2004-11-22 09:27:39 51°10.292 2°39.901 258.3 11.6 257 16.1
2004-11-22 09:27:45 51°10.288 2°39.872 258.3 11.6 257 15.9
2004-11-22 09:27:55 51°10.281 2°39.822 258.3 11.5 257 16.1
2004-11-22 09:27:59 51°10.278 2°39.802 258.4 11.6 257 16.1
2004-11-22 09:28:05 51°10.274 2°39.773 258.8 11.6 257 16.2
2004-11-22 09:28:15 51°10.266 2°39.723 258.3 11.6 257 16.4
2004-11-22 09:28:20 51°10.263 2°39.698 258.3 11.6 257 16.3
2004-11-22 09:28:24 51°10.26 2°39.678 258.3 11.6 257 16.4
2004-11-22 09:28:30 51°10.256 2°39.648 258.2 11.6 257 16.4
2004-11-22 09:28:32 51°10.254 2°39.638 259.2 11.7 259 16.6
2004-11-22 09:28:42 51°10.248 2°39.587 260 11.7 259 16.6
2004-11-22 09:28:47 51°10.245 2°39.562 260.5 11.7 259 16.6
2004-11-22 09:28:52 51°10.242 2°39.537 259.9 11.7 259 16.8
2004-11-22 09:28:56 51°10.24 2°39.517 260 11.7 259 16.9
2004-11-22 09:29:02 51°10.236 2°39.486 260.6 11.6 260 16.9
2004-11-22 09:29:07 51°10.234 2°39.461 260.7 11.7 260 17
2004-11-22 09:29:12 51°10.231 2°39.436 260.7 11.7 260 17
2004-11-22 09:29:16 51°10.228 2°39.416 260.3 11.6 260 17
2004-11-22 09:29:22 51°10.225 2°39.386 260.1 11.5 260 17.1
2004-11-22 09:29:26 51°10.223 2°39.366 260.4 11.5 260 17.3
2004-11-22 09:29:32 51°10.22 2°39.336 260.8 11.4 261 17.2
2004-11-22 09:29:36 51°10.217 2°39.316 260.5 11.4 260 17.2
2004-11-22 09:29:42 51°10.214 2°39.287 260.5 11.4 260 17.3
2004-11-22 09:29:48 51°10.21 2°39.257 259.8 11.5 259 17.3
2004-11-22 09:29:52 51°10.207 2°39.237 259.8 11.5 258 17.3
2004-11-22 09:29:55 51°10.205 2°39.222 259.5 11.5 258 17.4
2004-11-22 09:30:01 51°10.202 2°39.193 259.6 11.4 259 17.3
2004-11-22 09:30:06 51°10.199 2°39.168 259.8 11.4 258 17.5
2004-11-22 09:30:12 51°10.196 2°39.139 259.9 11.4 260 17.8
2004-11-22 09:30:16 51°10.194 2°39.119 260.6 11.3 260 17.7
2004-11-22 09:30:22 51°10.19 2°39.089 260.8 11.5 259 17.9
2004-11-22 09:30:27 51°10.187 2°39.064 260.6 11.5 259 17.9
2004-11-22 09:30:32 51°10.184 2°39.04 260 11.4 259 18
2004-11-22 09:30:37 51°10.181 2°39.015 260.1 11.3 259 17.6
2004-11-22 09:30:42 51°10.178 2°38.99 259.8 11.3 258 18.1
2004-11-22 09:30:46 51°10.176 2°38.971 260.2 11.2 260 17.7
2004-11-22 09:30:52 51°10.172 2°38.942 260.4 11.2 260 17.8
2004-11-22 09:30:57 51°10.169 2°38.917 260.5 11.4 260 17.9
2004-11-22 09:31:02 51°10.166 2°38.892 260.7 11.4 258 18.3
2004-11-22 09:31:04 51°10.164 2°38.883 260.5 11.3 259 17.9
2004-11-22 09:31:12 51°10.16 2°38.843 259.8 11.3 259 18.1
2004-11-22 09:31:17 51°10.157 2°38.819 260.2 11.4 260 17.9
2004-11-22 09:31:20 51°10.155 2°38.804 260.3 11.4 260 18.1
2004-11-22 09:31:38 51°10.145 2°38.714 261.1 11.5 260 18.3
2004-11-22 09:31:42 51°10.142 2°38.694 260.5 11.5 259 18.3
2004-11-22 09:31:48 51°10.139 2°38.664 260.4 11.5 259 18.3
2004-11-22 09:31:50 51°10.137 2°38.653 260.3 11.6 259 18.2
2004-11-22 09:32:14 51°10.124 2°38.532 261.1 11.6 260 18.9
2004-11-22 09:32:20 51°10.12 2°38.502 260.7 11.6 260 18.9
2004-11-22 09:32:24 51°10.119 2°38.481 261.3 11.7 261 18.4
2004-11-22 09:32:30 51°10.115 2°38.451 261.2 11.6 261 18.7
2004-11-22 09:32:34 51°10.113 2°38.431 261.2 11.7 260 18.5
2004-11-22 09:32:40 51°10.109 2°38.4 260.7 11.7 260 18.6
2004-11-22 09:32:45 51°10.106 2°38.375 260.8 11.8 260 19
2004-11-22 09:32:50 51°10.104 2°38.349 260.4 11.8 261 19.2
2004-11-22 09:32:54 51°10.101 2°38.329 260.7 11.8 260 19.2
2004-11-22 09:33:00 51°10.098 2°38.298 260.8 11.8 260 19.4
2004-11-22 09:33:04 51°10.095 2°38.277 260.5 11.8 260 19.2
2004-11-22 09:33:14 51°10.089 2°38.227 259.7 11.8 258 19.4
2004-11-22 09:33:18 51°10.086 2°38.207 259.7 11.8 259 19.5
2004-11-22 09:33:24 51°10.083 2°38.176 259.8 11.7 260 19.5
2004-11-22 09:33:30 51°10.079 2°38.146 260.4 11.8 259 19.5
2004-11-22 09:33:35 51°10.076 2°38.12 260.7 11.8 259 19.5
2004-11-22 09:33:48 51°10.069 2°38.053 260.8 11.9 260 19.7
2004-11-22 09:33:54 51°10.065 2°38.022 261.1 11.8 260 19.7
2004-11-22 09:33:59 51°10.062 2°37.997 260.7 11.8 259 19.7
2004-11-22 09:34:04 51°10.059 2°37.971 260.3 11.8 260 19.7
2004-11-22 09:34:18 51°10.051 2°37.899 260.5 11.8 259 19.3
2004-11-22 09:34:24 51°10.047 2°37.869 260.4 11.6 259 19.5
2004-11-22 09:34:29 51°10.044 2°37.844 259.8 11.7 259 19.9
2004-11-22 09:34:32 51°10.042 2°37.829 259.9 11.8 259 19.8
2004-11-22 09:34:38 51°10.039 2°37.798 259.8 11.8 259 19.8
2004-11-22 09:34:42 51°10.036 2°37.777 260.1 11.8 260 19.9
2004-11-22 09:34:52 51°10.03 2°37.726 260.4 11.7 259 19.9
2004-11-22 09:34:59 51°10.025 2°37.691 260.1 11.7 259 19.9
2004-11-22 09:35:16 51°10.014 2°37.604 260.3 11.8 259 20.1
2004-11-22 09:35:20 51°10.012 2°37.583 260.9 11.8 259 20.2
2004-11-22 09:35:26 51°10.009 2°37.552 260.9 11.9 259 20.1
2004-11-22 09:35:30 51°10.006 2°37.531 260.8 11.8 260 20.1
2004-11-22 09:35:36 51°10.003 2°37.5 260.5 11.8 260 20.2
2004-11-22 09:35:39 51°10.001 2°37.485 260.5 11.8 259 20
2004-11-22 09:36:04 51°9.985 2°37.357 260.6 11.9 259 20.2
2004-11-22 09:36:08 51°9.983 2°37.336 260.3 11.9 259 20.3
2004-11-22 09:36:12 51°9.98 2°37.315 260.3 12 259 20.3
2004-11-22 09:36:16 51°9.978 2°37.294 259.8 12 259 20.3
2004-11-22 09:36:34 51°9.966 2°37.202 260 11.9 259 20.5
2004-11-22 09:36:39 51°9.963 2°37.176 260.2 11.7 258 20.2
2004-11-22 09:36:42 51°9.961 2°37.161 259.7 11.7 258 20.1
2004-11-22 09:36:58 51°9.951 2°37.079 260.3 11.7 260 20.1
2004-11-22 09:37:03 51°9.948 2°37.054 260.7 11.7 260 20.3
2004-11-22 09:37:08 51°9.946 2°37.029 260.9 11.7 260 20.2
2004-11-22 09:37:10 51°9.945 2°37.019 260.5 11.7 260 20.3
2004-11-22 09:37:34 51°9.931 2°36.897 260 11.7 261 20.3
2004-11-22 09:37:40 51°9.929 2°36.866 261.8 11.6 264 20.5
2004-11-22 09:37:44 51°9.927 2°36.846 263.5 11.7 263 20.5
2004-11-22 09:37:50 51°9.926 2°36.815 264.8 11.7 266 20.3
2004-11-22 09:37:54 51°9.925 2°36.795 266.3 11.6 266 20.4
2004-11-22 09:37:59 51°9.925 2°36.769 266.9 11.7 268 20.3
2004-11-22 09:38:04 51°9.925 2°36.743 268.2 11.7 268 20.5
2004-11-22 09:38:08 51°9.925 2°36.723 268.5 11.7 269 20.3
2004-11-22 09:38:15 51°9.924 2°36.687 268.1 11.7 268 20.6
2004-11-22 09:38:19 51°9.923 2°36.666 267.7 11.8 268 20.7
2004-11-22 09:38:32 51°9.922 2°36.599 267.9 11.8 268 20.6
2004-11-22 09:38:34 51°9.922 2°36.588 268 11.8 268 20.4
2004-11-22 09:38:40 51°9.921 2°36.557 268.1 11.7 268 20.6
2004-11-22 09:38:45 51°9.921 2°36.531 268.4 11.8 269 20.5
2004-11-22 09:38:50 51°9.921 2°36.505 268.4 11.8 269 20.4
2004-11-22 09:38:54 51°9.92 2°36.485 268 11.7 268 20.7
2004-11-22 09:38:59 51°9.92 2°36.459 267.8 11.7 268 20.7
2004-11-22 09:39:06 51°9.919 2°36.423 267.6 11.7 268 20.7
2004-11-22 09:39:10 51°9.918 2°36.402 267 11.7 268 20.7
2004-11-22 09:39:16 51°9.918 2°36.371 267.1 11.7 269 20.5
2004-11-22 09:39:21 51°9.918 2°36.345 267.5 11.6 269 20.3
2004-11-22 09:39:24 51°9.917 2°36.33 267.7 11.7 269 20.3
2004-11-22 09:39:34 51°9.916 2°36.279 267.3 11.5 267 20.7
2004-11-22 09:39:40 51°9.915 2°36.248 266.9 11.4 267 20.6
2004-11-22 09:39:46 51°9.915 2°36.218 266.9 11.4 267 20.5
2004-11-22 09:39:50 51°9.915 2°36.198 267.2 11.4 269 20.6
2004-11-22 09:39:56 51°9.917 2°36.168 269.6 11.5 273 20.6
2004-11-22 09:40:00 51°9.919 2°36.148 274.2 11.5 280 20.7
2004-11-22 09:40:06 51°9.925 2°36.119 279.8 11.6 285 20.7
2004-11-22 09:40:11 51°9.93 2°36.094 283.2 11.8 290 20.7
2004-11-22 09:40:16 51°9.936 2°36.07 286.8 11.8 290 21
2004-11-22 09:40:21 51°9.943 2°36.046 288.3 11.8 290 20.9
2004-11-22 09:40:34 51°9.963 2°35.986 291.8 11.9 297 21.1
2004-11-22 09:40:39 51°9.973 2°35.964 294.6 12.1 306 20.9
2004-11-22 09:40:44 51°9.984 2°35.944 299.6 12.1 306 20.6
2004-11-22 09:40:47 51°9.991 2°35.932 304.1 12.1 306 20.6
2004-11-22 09:40:52 51°10.004 2°35.912 308.6 12.6 318 20.5
2004-11-22 09:40:57 51°10.018 2°35.895 313.5 12.5 320 19.9
2004-11-22 09:41:01 51°10.03 2°35.882 319.1 12.7 328 19.4
2004-11-22 09:41:06 51°10.046 2°35.869 324.7 13 332 19.2
2004-11-22 09:41:12 51°10.066 2°35.853 327.7 13.2 334 18.9
2004-11-22 09:41:19 51°10.089 2°35.838 330.1 13.1 335 18.1
2004-11-22 09:41:24 51°10.107 2°35.828 333 13.3 338 16.9
2004-11-22 09:41:28 51°10.121 2°35.821 337 13.5 342 16.5
2004-11-22 09:41:31 51°10.131 2°35.816 337.5 13.5 344 15.8
2004-11-22 09:41:39 51°10.16 2°35.807 341.8 13.5 348 14.7
2004-11-22 09:41:44 51°10.179 2°35.806 345.9 13.6 357 14.3
2004-11-22 09:41:48 51°10.194 2°35.804 350.5 13.6 353 13.5
2004-11-22 09:41:53 51°10.213 2°35.809 357.4 13.7 3 13.5
2004-11-22 09:41:59 51°10.236 2°35.815 2.9 13.7 3 13.3
2004-11-22 09:42:03 51°10.251 2°35.823 9.7 14.2 14 13.4
2004-11-22 09:42:09 51°10.272 2°35.838 16.7 13.8 22 13.1
2004-11-22 09:42:14 51°10.29 2°35.852 24.8 13.8 22 13.3
2004-11-22 09:42:19 51°10.308 2°35.865 26.4 14.6 25 13.4
2004-11-22 09:42:24 51°10.327 2°35.876 25.9 14.7 26 13.6
2004-11-22 09:42:28 51°10.341 2°35.891 23.7 14.7 29 13.6
2004-11-22 09:42:34 51°10.363 2°35.904 25.4 14.6 21 13.5
2004-11-22 09:42:38 51°10.377 2°35.917 27 14.4 28 13.6
2004-11-22 09:42:43 51°10.395 2°35.931 28.1 14.3 27 13.7
2004-11-22 09:42:49 51°10.417 2°35.95 30.7 14.3 27 14
2004-11-22 09:42:54 51°10.436 2°35.963 26.8 15.1 20 13.7
2004-11-22 09:42:59 51°10.454 2°35.978 26.8 14.5 29 13.7
2004-11-22 09:43:03 51°10.469 2°35.987 28.1 14.5 29 13.6
2004-11-22 09:43:07 51°10.482 2°36.003 29 14.9 32 13.5
2004-11-22 09:43:14 51°10.508 2°36.021 29 14.9 32 13.6
2004-11-22 09:43:17 51°10.517 2°36.033 30.1 14.5 34 13.5
2004-11-22 09:43:25 51°10.548 2°36.054 29.3 14.9 25 13.4
2004-11-22 09:43:32 51°10.573 2°36.077 28.4 14.9 25 13.4
2004-11-22 09:43:36 51°10.588 2°36.088 28.9 14.9 25 13.3
2004-11-22 09:43:40 51°10.602 2°36.102 29.5 14.6 29 13.5
2004-11-22 09:43:46 51°10.622 2°36.122 29.9 14.6 29 13.4
2004-11-22 09:43:52 51°10.643 2°36.14 33.6 14.4 32 13.5
2004-11-22 09:43:56 51°10.657 2°36.156 34.6 14.4 32 13.5
2004-11-22 09:44:02 51°10.679 2°36.173 31.6 14.4 32 13.5
2004-11-22 09:44:07 51°10.697 2°36.191 31.3 14.9 32 13.6
2004-11-22 09:44:12 51°10.715 2°36.207 32.2 14.9 29 13.7
2004-11-22 09:44:17 51°10.733 2°36.223 33.1 15 30 13.9
2004-11-22 09:44:22 51°10.752 2°36.239 32.3 15 30 14
2004-11-22 09:44:26 51°10.766 2°36.252 30.7 14.7 31 14.2
2004-11-22 09:44:32 51°10.787 2°36.273 32.8 14.8 32 14.3
2004-11-22 09:44:36 51°10.802 2°36.287 35 14.8 32 14.2
2004-11-22 09:44:42 51°10.823 2°36.306 33.4 15.2 32 14.2
2004-11-22 09:44:47 51°10.839 2°36.327 32.4 15.2 32 14.2
2004-11-22 09:44:52 51°10.857 2°36.342 34.6 14.8 29 14.1
2004-11-22 09:44:57 51°10.873 2°36.362 36.9 14.9 39 14.4
2004-11-22 09:45:02 51°10.891 2°36.378 35.7 14.9 39 14.3
2004-11-22 09:45:06 51°10.905 2°36.392 33.7 14.8 30 14.6
2004-11-22 09:45:12 51°10.927 2°36.411 33.4 14.8 30 14.5
2004-11-22 09:45:17 51°10.945 2°36.428 31.8 14.9 30 14.6
2004-11-22 09:45:22 51°10.962 2°36.446 34.3 15.2 35 14.7
2004-11-22 09:45:27 51°10.98 2°36.462 33.8 14.7 30 14.8
2004-11-22 09:45:30 51°10.989 2°36.476 35.9 14.6 35 14.8
2004-11-22 09:45:36 51°11.01 2°36.495 37.7 14.7 37 14.8
2004-11-22 09:45:42 51°11.029 2°36.52 36.8 14.7 35 14.9
2004-11-22 09:45:46 51°11.044 2°36.531 36.2 14.7 29 14.7
2004-11-22 09:45:52 51°11.064 2°36.552 34.1 14.7 29 14.8
2004-11-22 09:45:55 51°11.074 2°36.564 35.1 14.3 32 15.1
2004-11-22 09:46:02 51°11.098 2°36.587 33.1 14.5 29 14.9
2004-11-22 09:46:12 51°11.133 2°36.622 34.8 15.1 31 14.8
2004-11-22 09:46:19 51°11.158 2°36.644 34.9 14.9 27 14.9
2004-11-22 09:46:24 51°11.175 2°36.662 29.8 14.6 27 15.2
2004-11-22 09:46:29 51°11.193 2°36.678 34 14.8 37 15.3
2004-11-22 09:46:34 51°11.21 2°36.696 32.6 14.7 27 15.2
2004-11-22 09:46:38 51°11.223 2°36.713 35.5 15 37 15.3
2004-11-22 09:46:42 51°11.238 2°36.722 33.4 14.8 25 15.1
2004-11-22 09:46:52 51°11.272 2°36.759 35.1 14.7 35 15.2
2004-11-22 09:46:58 51°11.291 2°36.784 35.5 14.5 40 15.3
2004-11-22 09:47:04 51°11.312 2°36.803 39.8 14.6 29 15.4
2004-11-22 09:47:09 51°11.329 2°36.822 36.2 14.8 35 15.5
2004-11-22 09:47:14 51°11.347 2°36.836 33.4 14.8 35 15.4
2004-11-22 09:47:18 51°11.361 2°36.851 32.3 14.7 32 15.3
2004-11-22 09:47:29 51°11.4 2°36.888 35.1 14.9 32 15.5
2004-11-22 09:47:39 51°11.434 2°36.924 35.9 14.6 34 15.7
2004-11-22 09:47:44 51°11.451 2°36.94 35.9 14.6 30 15.7
2004-11-22 09:47:46 51°11.457 2°36.948 34.8 14.6 32 15.5
2004-11-22 09:47:54 51°11.485 2°36.974 34.4 14.5 31 15.7
2004-11-22 09:47:59 51°11.502 2°36.993 34.8 14.5 35 15.8
2004-11-22 09:48:04 51°11.52 2°37.009 35.6 14.5 35 15.7
2004-11-22 09:48:08 51°11.533 2°37.025 35.1 14.5 35 15.7
2004-11-22 09:48:12 51°11.548 2°37.035 33.9 14.8 27 15.6
2004-11-22 09:48:18 51°11.569 2°37.056 32.6 14.8 30 15.8
2004-11-22 09:48:24 51°11.59 2°37.074 32.4 14.6 29 15.6
2004-11-22 09:48:29 51°11.607 2°37.093 33.7 14.8 34 15.7
2004-11-22 09:48:34 51°11.625 2°37.109 34.9 14.8 34 15.6
2004-11-22 09:48:39 51°11.642 2°37.127 35.5 14.5 33 15.7
2004-11-22 09:48:44 51°11.659 2°37.143 33.5 14.5 29 15.5
2004-11-22 09:48:48 51°11.673 2°37.155 32.9 14.5 29 15.5
2004-11-22 09:48:52 51°11.688 2°37.169 32.2 14.7 28 15.4
2004-11-22 09:48:58 51°11.708 2°37.188 33.3 14.5 29 15.6
2004-11-22 09:49:02 51°11.721 2°37.204 35.4 14.6 35 15.7
2004-11-22 09:49:09 51°11.745 2°37.228 34.5 14.4 33 15.5
2004-11-22 09:49:14 51°11.762 2°37.244 37.1 14.7 36 15.6
2004-11-22 09:49:18 51°11.777 2°37.255 31.3 14.2 30 15.5
2004-11-22 09:49:22 51°11.789 2°37.27 34.5 14.2 34 15.5
2004-11-22 09:49:34 51°11.83 2°37.311 35.2 14.2 32 15.6
2004-11-22 09:49:39 51°11.847 2°37.328 36 14.3 33 15.4
2004-11-22 09:49:44 51°11.863 2°37.346 36 14.1 33 15.7
2004-11-22 09:49:49 51°11.88 2°37.364 37.3 14.8 33 15.5
2004-11-22 09:49:54 51°11.898 2°37.38 33.3 14.8 33 15.2
2004-11-22 09:49:58 51°11.911 2°37.396 34.8 14.8 33 15.5
2004-11-22 09:50:04 51°11.932 2°37.416 35.5 14.9 32 15.4
2004-11-22 09:50:08 51°11.947 2°37.428 33.1 14.9 32 15.5
2004-11-22 09:50:14 51°11.968 2°37.448 31.9 14.7 29 15.6
2004-11-22 09:50:19 51°11.986 2°37.463 32.7 14.6 29 15.5
2004-11-22 09:50:24 51°12.003 2°37.48 32.5 14.6 29 15.6
2004-11-22 09:50:29 51°12.021 2°37.497 33.1 14.8 30 15.6
2004-11-22 09:50:34 51°12.038 2°37.515 34.8 14.6 34 15.6
2004-11-22 09:50:39 51°12.054 2°37.533 36.2 14.6 34 15.4
2004-11-22 09:50:44 51°12.072 2°37.549 37.1 14.7 33 15.4
2004-11-22 09:50:49 51°12.089 2°37.568 34.8 14.8 35 15.4
2004-11-22 09:50:54 51°12.107 2°37.585 36.3 14.8 35 15.4
2004-11-22 09:50:59 51°12.124 2°37.602 34.2 14.7 31 15.4
2004-11-22 09:51:04 51°12.141 2°37.619 33.5 14.7 31 15.3
2004-11-22 09:51:08 51°12.155 2°37.634 35.3 15.1 33 15.3
2004-11-22 09:51:14 51°12.177 2°37.653 34.1 15.1 31 15.2
2004-11-22 09:51:19 51°12.194 2°37.672 34 15.1 34 15.4
2004-11-22 09:51:24 51°12.213 2°37.687 33.3 15 30 15.3
2004-11-22 09:51:29 51°12.23 2°37.704 33.4 14.7 32 15.3
2004-11-22 09:51:34 51°12.247 2°37.723 34.8 15 34 15.2
2004-11-22 09:51:38 51°12.262 2°37.736 35.8 15.2 29 15.3
2004-11-22 09:51:44 51°12.282 2°37.758 34.1 15 31 15.3
2004-11-22 09:51:49 51°12.3 2°37.775 34.8 14.6 31 15.3
2004-11-22 09:51:54 51°12.316 2°37.795 37.1 14.6 36 15.3
2004-11-22 09:51:59 51°12.334 2°37.811 37.2 14.6 36 15.3
2004-11-22 09:52:04 51°12.349 2°37.831 36.5 14.6 36 15.4
2004-11-22 09:52:09 51°12.367 2°37.848 38.9 14.6 33 15.5
2004-11-22 09:52:11 51°12.374 2°37.856 37.7 14.9 34 15.4
2004-11-22 09:52:19 51°12.402 2°37.882 35.6 14.7 27 15.6
2004-11-22 09:52:22 51°12.412 2°37.894 35 14.6 37 15.6
2004-11-22 09:52:29 51°12.437 2°37.917 37.7 14.8 31 15.4
2004-11-22 09:52:34 51°12.454 2°37.936 35.5 15 32 15.6
2004-11-22 09:52:39 51°12.472 2°37.95 33.2 14.6 26 15.2
2004-11-22 09:52:44 51°12.489 2°37.97 33.8 14.6 33 15.6
2004-11-22 09:52:48 51°12.504 2°37.981 35.3 15 29 15.5
2004-11-22 09:52:51 51°12.515 2°37.99 31.2 15 30 15.6
2004-11-22 09:52:57 51°12.536 2°38.011 33.6 14.7 28 15.7
2004-11-22 09:53:01 51°12.55 2°38.025 33.4 14.7 28 15.7
2004-11-22 09:53:14 51°12.594 2°38.069 34.4 14.8 33 15.8
2004-11-22 09:53:28 51°12.642 2°38.115 32.6 14.5 29 15.8
2004-11-22 09:53:34 51°12.663 2°38.134 33.1 14.3 28 15.8
2004-11-22 09:53:40 51°12.683 2°38.154 32.7 14.2 31 15.6
2004-11-22 09:53:44 51°12.696 2°38.166 34.4 14.1 29 15.7
2004-11-22 09:53:50 51°12.716 2°38.187 32.8 14.2 28 15.7
2004-11-22 09:53:54 51°12.73 2°38.2 35.3 14.4 33 15.5
2004-11-22 09:53:59 51°12.747 2°38.218 36.2 14.6 33 15.8
2004-11-22 09:54:04 51°12.764 2°38.235 35.6 14.6 30 15.7
2004-11-22 09:54:10 51°12.785 2°38.256 34.7 14.6 30 15.7
2004-11-22 09:54:14 51°12.799 2°38.268 35.7 14.7 30 15.9
2004-11-22 09:54:20 51°12.82 2°38.289 34.8 14.9 32 15.9
2004-11-22 09:54:25 51°12.837 2°38.308 34.1 15 35 16.1
2004-11-22 09:54:30 51°12.855 2°38.322 34.8 14.7 25 15.9
2004-11-22 09:54:35 51°12.872 2°38.34 34.1 14.6 32 16
2004-11-22 09:54:38 51°12.883 2°38.35 34.1 14.8 30 16.1
2004-11-22 09:54:44 51°12.905 2°38.369 32.7 14.7 30 16.1
2004-11-22 09:54:50 51°12.926 2°38.39 32.4 14.7 30 16.1
2004-11-22 09:54:54 51°12.94 2°38.403 34.9 14.7 30 16.3
2004-11-22 09:54:58 51°12.954 2°38.417 34.3 15 33 16.1
2004-11-22 09:55:04 51°12.974 2°38.439 36.1 15 36 16.3
2004-11-22 09:55:10 51°12.994 2°38.464 37.7 14.8 35 16.5
2004-11-22 09:55:14 51°13.009 2°38.475 38.5 14.8 35 16.3
2004-11-22 09:55:18 51°13.022 2°38.493 37.3 14.9 36 16.7
2004-11-22 09:55:24 51°13.043 2°38.511 34.3 14.8 28 16.5
2004-11-22 09:55:30 51°13.065 2°38.53 33.6 14.8 28 16.5
2004-11-22 09:55:32 51°13.072 2°38.536 30.5 14.6 33 16.5
2004-11-22 09:55:40 51°13.099 2°38.565 34.9 14.6 33 16.6
2004-11-22 09:55:44 51°13.114 2°38.574 33.9 14.7 25 16.5
2004-11-22 09:55:50 51°13.135 2°38.593 28.3 14.4 29 16.7
2004-11-22 09:55:55 51°13.153 2°38.607 29.3 14.4 29 16.7
2004-11-22 09:56:00 51°13.171 2°38.622 28.3 14.5 24 16.6
2004-11-22 09:56:02 51°13.178 2°38.629 31.3 14.5 28 16.6
2004-11-22 09:56:08 51°13.2 2°38.644 29.8 14.5 28 16.5
2004-11-22 09:56:14 51°13.221 2°38.664 31.1 14.5 28 16.9
2004-11-22 09:56:20 51°13.244 2°38.678 25.8 14.5 28 16.8
2004-11-22 09:56:24 51°13.258 2°38.691 28.9 14.9 33 17
2004-11-22 09:56:28 51°13.274 2°38.697 25.6 14.9 33 16.8
2004-11-22 09:56:35 51°13.299 2°38.718 24.2 14.4 27 16.8
2004-11-22 09:56:40 51°13.318 2°38.729 28 14.5 21 16.8
2004-11-22 09:56:45 51°13.335 2°38.743 26.2 14.3 25 16.6
2004-11-22 09:56:47 51°13.343 2°38.747 25.3 14.1 25 15.8
2004-11-22 09:56:54 51°13.368 2°38.765 28.6 14.3 27 16.2
2004-11-22 09:57:00 51°13.389 2°38.782 22.6 14.3 27 15.7
2004-11-22 09:57:03 51°13.401 2°38.787 25.4 14.3 27 15.8
2004-11-22 09:57:10 51°13.426 2°38.805 22.6 14.4 23 15.8
2004-11-22 09:57:15 51°13.446 2°38.814 24.6 14.4 23 16
2004-11-22 09:57:20 51°13.464 2°38.826 23.2 14.5 21 16.5
2004-11-22 09:57:25 51°13.482 2°38.838 23.1 14.2 22 16.5
2004-11-22 09:57:28 51°13.494 2°38.845 24.4 14.7 20 16.7
2004-11-22 09:57:38 51°13.532 2°38.867 21.2 14.5 24 16.9
2004-11-22 09:57:42 51°13.546 2°38.877 23.2 14.4 21 16.8
2004-11-22 09:57:48 51°13.569 2°38.889 22.9 14.3 19 16.9
2004-11-22 09:57:52 51°13.584 2°38.898 22.7 14.7 22 16.8
2004-11-22 09:57:57 51°13.604 2°38.906 18.7 14.5 13 16.8
2004-11-22 09:58:03 51°13.627 2°38.918 20.3 14.5 13 16.9
2004-11-22 09:58:08 51°13.646 2°38.922 19.5 14.5 13 17
2004-11-22 09:58:12 51°13.662 2°38.927 13.4 14 9 17.2
2004-11-22 09:58:16 51°13.677 2°38.925 8 13.9 358 16.9
2004-11-22 09:58:37 51°13.757 2°38.919 354.9 13.8   17.2
2004-11-22 09:58:43 51°13.78 2°38.916 354.2 13.8 356 16.9
2004-11-22 09:58:47 51°13.796 2°38.914 355.1 14 354 16.8
2004-11-22 09:58:51 51°13.811 2°38.91 353.7 13.9 351 17.1
2004-11-22 09:58:58 51°13.838 2°38.906 353.8 13.6 354 16.6
2004-11-22 09:59:03 51°13.857 2°38.9 353 13.7 354 16
2004-11-22 09:59:05 51°13.864 2°38.901 353.4 13.8 355 16
2004-11-22 09:59:16 51°13.906 2°38.889 351.8 13.8 352 15.9